Daily Reports


Yearly Report

                  YEARLY CLIMATOLOGICAL SUMMARY FOR 2016
                                        HEAT  COOL        
     MEAN                               DEG   DEG       WIND SPEED       DOM MEAN  MEAN
MON  TEMP  HIGH   DATE     LOW   DATE   DAYS  DAYS RAIN AVG  HI  DATE    DIR BAROM HUM
---------------------------------------------------------------------------------------
1    40.4  67.8  1/31/16  16.8  1/19/16  764    0 12.71   4  40  1/23/16 WSW 29.95   68
2    43.9  74.5   2/3/16  23.7  2/11/16  236    3 18.93   5  28   2/7/16   W 29.91   72
---------------------------------------------------------------------------------------
TOT  41.3  74.5   2/3/16  16.8  1/19/16 1000    4 31.62   4  40  1/23/16 WSW 29.94   69

HEAT BASE: 65.0
COOL BASE: 65.0


Monthly Report

                  MONTHLY CLIMATOLOGICAL SUMMARY FOR 2/2016
                                        HEAT  COOL        
     MEAN                               DEG   DEG       WIND SPEED       DOM MEAN  MEAN
DAY  TEMP  HIGH   TIME     LOW   TIME   DAYS  DAYS RAIN AVG  HI  TIME    DIR BAROM HUM
---------------------------------------------------------------------------------------
1    59.9  73.1   2:48pm  49.1  11:57pm    7    1  0.76   6  25   6:04pm WSW 29.83   69
2    47.9  52.3  12:49pm  43.8   9:41pm   17    0  0.09   3  18   8:46am  NE 30.15   81
3    61.0  74.5   1:01pm  45.3  12:00am    6    2  4.25   3  32   2:13pm SSW 29.94   86
4    52.6  63.1   8:42am  40.5  11:28pm   12    0  2.08   4  26  10:19am  NE 29.90   96
5    39.1  45.2   2:34pm  33.4   7:10am   26    0  3.69   7  28   4:49am NNW 30.12   76
6    36.8  47.0   1:19pm  29.6   3:19am   28    0  0.00   1  13   1:20pm ENE 30.29   70
7    38.4  42.0   3:22pm  31.3  12:52am   27    0  5.57   6  28   5:06pm NNE 29.90   75
8    41.9  49.9  12:30pm  35.8   6:49am   23    0  0.86   3  24   1:10am NNW 29.62   70
9    41.3  48.5   1:00pm  33.8  11:58pm   24    0  0.13   4  25   2:44pm   W 29.50   75
10   34.6  43.3   3:03pm  29.4   5:17am   30    0  0.33   7  27   7:26pm   W 29.72   54
11   29.2  35.2   3:38pm  23.7   6:42am   36    0  1.17   6  26  12:38am   W 30.04   43
---------------------------------------------------------------------------------------
TOT  43.9  74.5   2/3/16  23.7  2/11/16  236    3 18.93   5  28   2/7/16   W 29.91   72

HEAT BASE: 65.0
COOL BASE: 65.0


Yearly Archive Report

Parameter                   Max   Max Time   Max Date        Min   Min Time   Min Date    Average
Wind Speed                   40     2:11am    1/23/16          0    12:00am     1/1/16          4
Wind Gust                    40     2:11am    1/23/16          0    12:00am     1/1/16         10
Out Temp                   74.5     1:01pm     2/3/16       16.8     3:47am    1/19/16       41.3
Raw Barometer             30.54     6:29pm     1/5/16      29.18     2:59am    1/23/16      29.94
Out Heat Ix                76.8     1:01pm     2/3/16       18.1     3:47am    1/19/16       44.4


Monthly Archive Report

Parameter                   Max   Max Time   Max Date        Min   Min Time   Min Date    Average
Wind Speed                   28     5:06pm     2/7/16          0    12:02am     2/1/16          5
Wind Gust                    28     5:06pm     2/7/16          0     4:10pm     2/1/16         11
Out Temp                   74.5     1:01pm     2/3/16       23.7     6:42am    2/11/16       43.9
Raw Barometer             30.38    10:14am     2/6/16      29.44     1:29pm     2/9/16      29.91
Out Heat Ix                76.8     1:01pm     2/3/16       25.0     6:49am    2/11/16       47.3

 


Daily Archive Report

Parameter                   Max   Max Time        Min   Min Time    Average
Wind Speed                   12    12:00am          4    12:00am          4
Wind Gust                    12    12:00am         12    12:00am         12
Out Temp                   26.4    12:00am       26.4    12:00am       26.4
Raw Barometer             30.23    12:00am      30.23    12:00am      30.23
Out Heat Ix                26.7    12:00am       26.7    12:00am       26.7


Today's  Data File

2/12/16
Time         Wind Spd  Wind Gust       Temp  Raw Barom Heat Index  DailyRain
                  mph        mph         F         in         F         in
12:00am             4         12       26.4      30.23       26.7       1.17

 


Yesterday's Data File

2/11/16
Time         Wind Spd  Wind Gust       Temp  Raw Barom Heat Index  DailyRain
                  mph        mph         F         in         F         in
12:00am             1         20       29.9      29.87       30.2       0.33
12:20am            10         20       29.6      29.87       30.1       0.02
12:40am            10         26       28.6      29.88       28.9       0.04
1:00am              9         23       28.1      29.90       28.3       0.08
1:20am              5         15       27.8      29.89       28.1       0.21
1:40am              9         13       27.7      29.89       28.2       0.23
2:00am              5         16       27.4      29.90       27.9       0.25
2:20am              6         18       27.1      29.90       27.5       0.30
2:40am              9         13       26.8      29.90       27.3       0.32
3:00am              6         11       26.2      29.91       27.0       0.32
3:20am              2         10       25.9      29.91       26.9       0.32
3:40am              4         14       25.6      29.91       26.6       0.32
4:00am              6         12       25.4      29.93       26.5       0.32
4:20am              4         14       25.2      29.94       26.3       0.32
4:40am              9         17       25.0      29.95       26.1       0.33
5:00am              4         16       24.7      29.96       25.8       0.34
5:20am              6         13       24.4      29.97       25.6       0.34
5:40am              5         15       24.2      29.98       25.5       0.34
6:00am              9         20       24.0      29.99       25.5       0.34
6:20am             12         19       24.0      30.00       25.4       0.34
6:40am              2         15       23.8      30.01       25.2       0.34
7:00am              7         16       23.8      30.02       25.2       0.34
7:20am              7         16       24.0      30.03       25.4       0.34
7:40am             12         17       24.4      30.03       25.7       0.35
8:00am             10         18       24.6      30.05       25.7       0.36
8:20am              9         16       25.4      30.05       26.2       0.36
8:40am              9         16       26.1      30.05       26.7       0.36
9:00am              7         21       26.8      30.05       27.1       0.37
9:20am              8         16       27.6      30.05       27.8       0.38
9:40am             13         22       27.8      30.05       27.7       0.38
10:00am            11         16       29.0      30.04       28.8       0.41
10:20am             4         19       29.1      30.04       28.8       0.44
10:40am             3         19       29.7      30.04       29.4       0.45
11:00am             9         17       30.9      30.04       30.5       0.48
11:20am             6         22       30.5      30.04       30.1       0.54
11:40am             7         24       31.0      30.03       30.7       0.60
12:00pm            10         18       31.4      30.02       31.1       0.68
12:20pm             9         19       31.5      30.02       31.1       0.75
12:40pm             7         19       31.9      30.01       31.6       0.88
1:00pm              5         20       32.9      30.01       32.5       0.94
1:20pm              8         22       33.0      30.01       32.4       1.00
1:40pm              7         18       33.5      30.01       33.0       1.02
2:00pm              9         19       33.3      30.02       32.8       1.04
2:20pm              3         16       34.0      30.02       33.5       1.10
2:40pm              9         18       34.5      30.02       33.9       1.11
3:00pm              5         13       34.9      30.03       34.2       1.11
3:20pm             10         15       34.8      30.03       34.2       1.14
3:40pm             14         20       35.1      30.04       34.5       1.14
4:00pm             12         16       35.0      30.04       34.4       1.16
4:20pm              7         14       34.6      30.05       34.0       1.16
4:40pm              7         12       34.3      30.06       33.7       1.17
5:00pm              0         12       33.4      30.07       33.0       1.17
5:20pm              0         14       32.9      30.08       32.5       1.17
5:40pm              0          6       32.7      30.08       32.3       1.17
6:00pm              0          6       32.4      30.10       32.1       1.17
6:20pm              0          3       32.0      30.12       31.7       1.17
6:40pm              0          2       31.6      30.12       31.4       1.17
7:00pm              0          1       31.3      30.13       31.1       1.17
7:20pm              0          3       31.0      30.14       31.0       1.17
7:40pm              2          3       31.0      30.15       30.8       1.17
8:00pm              0          6       31.0      30.16       30.8       1.17
8:20pm              2         12       31.0      30.16       30.8       1.17
8:40pm              6         13       30.7      30.17       30.2       1.17
9:00pm              3         10       30.3      30.19       30.0       1.17
9:20pm              0          7       29.7      30.19       29.5       1.17
9:40pm              2         10       29.1      30.20       29.1       1.17
10:00pm             1         10       28.6      30.20       28.5       1.17
10:20pm             5         11       28.3      30.20       28.4       1.17
10:40pm             6         10       27.8      30.21       28.0       1.17
11:00pm            10         10       27.4      30.21       27.7       1.17
11:20pm             4          7       27.0      30.22       27.3       1.17
11:40pm             2          7       27.0      30.22       27.3       1.17